Appam, North Dakota
Current Conditions -  °F | °C
As of 8:55 AM on Wednesday 26 Nov 2014 (Local Time) from KD50 Reporting Station
Broken Clouds Broken Clouds  
Wind Chill: -14°   Ceiling: 900
Heat Index: -2°   Visibility: 10mi
Dew Point: -6°   Wind: 6mph
Humidity: 85%   Direction: 350°N
Pressure: 30.34"   Gusts: NA
Location:  48.59°N, 103.406°W
Report Text: KD50 261455Z AUTO 35005KT 10SM BKN009 M19/M21 A3034 RMK AO2
Loading
Personal Weather Stations






























Interactive Weather Map New forecast layout! Learn more

10-Day Weather Forecast

Advertisements
Track Severe Weather on mobile